sensor_id;sensor_type;location;lat;lon;timestamp;temperature;humidity
7445;DHT22;3764;48.126;11.594;2023-12-14T00:01:12;6.50;99.90
7445;DHT22;3764;48.126;11.594;2023-12-14T00:03:39;6.50;99.90
7445;DHT22;3764;48.126;11.594;2023-12-14T00:06:08;6.50;99.90
7445;DHT22;3764;48.126;11.594;2023-12-14T00:08:36;6.40;99.90
7445;DHT22;3764;48.126;11.594;2023-12-14T00:11:04;6.40;99.90
7445;DHT22;3764;48.126;11.594;2023-12-14T00:13:32;6.40;99.90
7445;DHT22;3764;48.126;11.594;2023-12-14T00:15:59;6.40;99.90
7445;DHT22;3764;48.126;11.594;2023-12-14T00:18:27;6.40;99.90
7445;DHT22;3764;48.126;11.594;2023-12-14T00:20:54;6.40;99.90
7445;DHT22;3764;48.126;11.594;2023-12-14T00:23:23;6.40;99.90
7445;DHT22;3764;48.126;11.594;2023-12-14T00:25:50;6.40;99.90
7445;DHT22;3764;48.126;11.594;2023-12-14T00:28:18;6.40;99.90
7445;DHT22;3764;48.126;11.594;2023-12-14T00:30:45;6.40;99.90
7445;DHT22;3764;48.126;11.594;2023-12-14T00:33:12;6.40;99.90
7445;DHT22;3764;48.126;11.594;2023-12-14T00:35:39;6.40;99.90
7445;DHT22;3764;48.126;11.594;2023-12-14T00:38:06;6.40;99.90
7445;DHT22;3764;48.126;11.594;2023-12-14T00:40:36;6.40;99.90
7445;DHT22;3764;48.126;11.594;2023-12-14T00:43:03;6.40;99.90
7445;DHT22;3764;48.126;11.594;2023-12-14T00:45:30;6.40;99.90
7445;DHT22;3764;48.126;11.594;2023-12-14T00:47:57;6.30;99.90
7445;DHT22;3764;48.126;11.594;2023-12-14T00:50:24;6.30;99.90
7445;DHT22;3764;48.126;11.594;2023-12-14T00:52:51;6.30;99.90
7445;DHT22;3764;48.126;11.594;2023-12-14T00:55:18;6.40;99.90
7445;DHT22;3764;48.126;11.594;2023-12-14T00:57:47;6.40;99.90
7445;DHT22;3764;48.126;11.594;2023-12-14T01:00:15;6.40;99.90
7445;DHT22;3764;48.126;11.594;2023-12-14T01:02:42;6.40;99.90
7445;DHT22;3764;48.126;11.594;2023-12-14T01:05:10;6.40;99.90
7445;DHT22;3764;48.126;11.594;2023-12-14T01:07:37;6.30;99.90
7445;DHT22;3764;48.126;11.594;2023-12-14T01:10:05;6.30;99.90
7445;DHT22;3764;48.126;11.594;2023-12-14T01:12:32;6.30;99.90
7445;DHT22;3764;48.126;11.594;2023-12-14T01:15:00;6.30;99.90
7445;DHT22;3764;48.126;11.594;2023-12-14T01:17:28;6.30;99.90
7445;DHT22;3764;48.126;11.594;2023-12-14T01:19:55;6.30;99.90
7445;DHT22;3764;48.126;11.594;2023-12-14T01:22:22;6.30;99.90
7445;DHT22;3764;48.126;11.594;2023-12-14T01:24:49;6.30;99.90
7445;DHT22;3764;48.126;11.594;2023-12-14T01:27:16;6.30;99.90
7445;DHT22;3764;48.126;11.594;2023-12-14T01:29:44;6.30;99.90
7445;DHT22;3764;48.126;11.594;2023-12-14T01:32:12;6.30;99.90
7445;DHT22;3764;48.126;11.594;2023-12-14T01:34:39;6.30;99.90
7445;DHT22;3764;48.126;11.594;2023-12-14T01:37:06;6.30;99.90
7445;DHT22;3764;48.126;11.594;2023-12-14T01:39:34;6.30;99.90
7445;DHT22;3764;48.126;11.594;2023-12-14T01:42:01;6.30;99.90
7445;DHT22;3764;48.126;11.594;2023-12-14T01:44:28;6.30;99.90
7445;DHT22;3764;48.126;11.594;2023-12-14T01:46:55;6.20;99.90
7445;DHT22;3764;48.126;11.594;2023-12-14T01:49:24;6.20;99.90
7445;DHT22;3764;48.126;11.594;2023-12-14T01:51:51;6.20;99.90
7445;DHT22;3764;48.126;11.594;2023-12-14T01:54:18;6.30;99.90
7445;DHT22;3764;48.126;11.594;2023-12-14T01:56:45;6.20;99.90
7445;DHT22;3764;48.126;11.594;2023-12-14T01:59:13;6.20;99.90
7445;DHT22;3764;48.126;11.594;2023-12-14T02:01:43;6.20;99.90
7445;DHT22;3764;48.126;11.594;2023-12-14T02:04:11;6.20;99.90
7445;DHT22;3764;48.126;11.594;2023-12-14T02:06:41;6.20;99.90
7445;DHT22;3764;48.126;11.594;2023-12-14T02:09:09;6.20;99.90
7445;DHT22;3764;48.126;11.594;2023-12-14T02:11:36;6.20;99.90
7445;DHT22;3764;48.126;11.594;2023-12-14T02:14:04;6.20;99.90
7445;DHT22;3764;48.126;11.594;2023-12-14T02:16:32;6.20;99.90
7445;DHT22;3764;48.126;11.594;2023-12-14T02:18:59;6.10;99.90
7445;DHT22;3764;48.126;11.594;2023-12-14T02:21:26;6.20;99.90
7445;DHT22;3764;48.126;11.594;2023-12-14T02:23:55;6.20;99.90
7445;DHT22;3764;48.126;11.594;2023-12-14T02:26:22;6.20;99.90
7445;DHT22;3764;48.126;11.594;2023-12-14T02:28:49;6.20;99.90
7445;DHT22;3764;48.126;11.594;2023-12-14T02:31:19;6.10;99.90
7445;DHT22;3764;48.126;11.594;2023-12-14T02:33:46;6.10;99.90
7445;DHT22;3764;48.126;11.594;2023-12-14T02:36:13;6.10;99.90
7445;DHT22;3764;48.126;11.594;2023-12-14T02:38:40;6.20;99.90
7445;DHT22;3764;48.126;11.594;2023-12-14T02:41:10;6.10;99.90
7445;DHT22;3764;48.126;11.594;2023-12-14T02:43:37;6.10;99.90
7445;DHT22;3764;48.126;11.594;2023-12-14T02:46:06;6.10;99.90
7445;DHT22;3764;48.126;11.594;2023-12-14T02:48:33;6.10;99.90
7445;DHT22;3764;48.126;11.594;2023-12-14T02:51:00;6.10;99.90
7445;DHT22;3764;48.126;11.594;2023-12-14T02:53:28;6.00;99.90
7445;DHT22;3764;48.126;11.594;2023-12-14T02:55:55;6.10;99.90
7445;DHT22;3764;48.126;11.594;2023-12-14T02:58:23;6.00;99.90
7445;DHT22;3764;48.126;11.594;2023-12-14T03:00:50;6.10;99.90
7445;DHT22;3764;48.126;11.594;2023-12-14T03:03:18;6.10;99.90
7445;DHT22;3764;48.126;11.594;2023-12-14T03:05:45;6.00;99.90
7445;DHT22;3764;48.126;11.594;2023-12-14T03:08:14;6.00;99.90
7445;DHT22;3764;48.126;11.594;2023-12-14T03:10:41;6.00;99.90
7445;DHT22;3764;48.126;11.594;2023-12-14T03:13:08;6.00;99.90
7445;DHT22;3764;48.126;11.594;2023-12-14T03:15:37;6.00;99.90
7445;DHT22;3764;48.126;11.594;2023-12-14T03:18:04;6.00;99.90
7445;DHT22;3764;48.126;11.594;2023-12-14T03:20:31;6.00;99.90
7445;DHT22;3764;48.126;11.594;2023-12-14T03:22:58;6.00;99.90
7445;DHT22;3764;48.126;11.594;2023-12-14T03:25:25;6.00;99.90
7445;DHT22;3764;48.126;11.594;2023-12-14T03:27:53;6.00;99.90
7445;DHT22;3764;48.126;11.594;2023-12-14T03:30:20;6.00;99.90
7445;DHT22;3764;48.126;11.594;2023-12-14T03:32:49;5.90;99.90
7445;DHT22;3764;48.126;11.594;2023-12-14T03:35:16;5.90;99.90
7445;DHT22;3764;48.126;11.594;2023-12-14T03:37:44;5.90;99.90
7445;DHT22;3764;48.126;11.594;2023-12-14T03:40:11;5.90;99.90
7445;DHT22;3764;48.126;11.594;2023-12-14T03:42:38;5.90;99.90
7445;DHT22;3764;48.126;11.594;2023-12-14T03:45:06;6.00;99.90
7445;DHT22;3764;48.126;11.594;2023-12-14T03:47:33;5.90;99.90
7445;DHT22;3764;48.126;11.594;2023-12-14T03:50:02;5.90;99.90
7445;DHT22;3764;48.126;11.594;2023-12-14T03:52:30;5.90;99.90
7445;DHT22;3764;48.126;11.594;2023-12-14T03:54:57;5.90;99.90
7445;DHT22;3764;48.126;11.594;2023-12-14T03:57:25;5.90;99.90
7445;DHT22;3764;48.126;11.594;2023-12-14T03:59:52;5.90;99.90
7445;DHT22;3764;48.126;11.594;2023-12-14T04:02:19;5.90;99.90
7445;DHT22;3764;48.126;11.594;2023-12-14T04:04:46;5.90;99.90
7445;DHT22;3764;48.126;11.594;2023-12-14T04:07:14;5.90;99.90
7445;DHT22;3764;48.126;11.594;2023-12-14T04:09:43;5.90;99.90
7445;DHT22;3764;48.126;11.594;2023-12-14T04:12:11;6.00;99.90
7445;DHT22;3764;48.126;11.594;2023-12-14T04:14:38;6.00;99.90
7445;DHT22;3764;48.126;11.594;2023-12-14T04:17:05;6.00;99.90
7445;DHT22;3764;48.126;11.594;2023-12-14T04:19:32;5.90;99.90
7445;DHT22;3764;48.126;11.594;2023-12-14T04:21:59;5.90;99.90
7445;DHT22;3764;48.126;11.594;2023-12-14T04:24:28;5.90;99.90
7445;DHT22;3764;48.126;11.594;2023-12-14T04:26:56;5.90;99.90
7445;DHT22;3764;48.126;11.594;2023-12-14T04:29:23;5.80;99.90
7445;DHT22;3764;48.126;11.594;2023-12-14T04:31:50;5.80;99.90
7445;DHT22;3764;48.126;11.594;2023-12-14T04:34:18;5.80;99.90
7445;DHT22;3764;48.126;11.594;2023-12-14T04:36:46;5.80;99.90
7445;DHT22;3764;48.126;11.594;2023-12-14T04:39:14;5.80;99.90
7445;DHT22;3764;48.126;11.594;2023-12-14T04:41:42;5.80;99.90
7445;DHT22;3764;48.126;11.594;2023-12-14T04:44:09;5.80;99.90
7445;DHT22;3764;48.126;11.594;2023-12-14T04:46:37;5.70;99.90
7445;DHT22;3764;48.126;11.594;2023-12-14T04:49:04;5.80;99.90
7445;DHT22;3764;48.126;11.594;2023-12-14T04:51:31;5.80;99.90
7445;DHT22;3764;48.126;11.594;2023-12-14T04:53:59;5.70;99.90
7445;DHT22;3764;48.126;11.594;2023-12-14T04:56:26;5.70;99.90
7445;DHT22;3764;48.126;11.594;2023-12-14T04:58:54;5.70;99.90
7445;DHT22;3764;48.126;11.594;2023-12-14T05:01:21;5.70;99.90
7445;DHT22;3764;48.126;11.594;2023-12-14T05:03:48;5.70;99.90
7445;DHT22;3764;48.126;11.594;2023-12-14T05:06:16;5.70;99.90
7445;DHT22;3764;48.126;11.594;2023-12-14T05:08:43;5.70;99.90
7445;DHT22;3764;48.126;11.594;2023-12-14T05:11:11;5.70;99.90
7445;DHT22;3764;48.126;11.594;2023-12-14T05:13:41;5.70;99.90
7445;DHT22;3764;48.126;11.594;2023-12-14T05:16:14;5.70;99.90
7445;DHT22;3764;48.126;11.594;2023-12-14T05:18:41;5.70;99.90
7445;DHT22;3764;48.126;11.594;2023-12-14T05:21:09;5.70;99.90
7445;DHT22;3764;48.126;11.594;2023-12-14T05:23:36;5.70;99.90
7445;DHT22;3764;48.126;11.594;2023-12-14T05:26:03;5.70;99.90
7445;DHT22;3764;48.126;11.594;2023-12-14T05:28:31;5.70;99.90
7445;DHT22;3764;48.126;11.594;2023-12-14T05:30:58;5.70;99.90
7445;DHT22;3764;48.126;11.594;2023-12-14T05:33:26;5.70;99.90
7445;DHT22;3764;48.126;11.594;2023-12-14T05:35:53;5.70;99.90
7445;DHT22;3764;48.126;11.594;2023-12-14T05:38:22;5.70;99.90
7445;DHT22;3764;48.126;11.594;2023-12-14T05:40:49;5.70;99.90
7445;DHT22;3764;48.126;11.594;2023-12-14T05:43:17;5.70;99.90
7445;DHT22;3764;48.126;11.594;2023-12-14T05:45:44;5.70;99.90
7445;DHT22;3764;48.126;11.594;2023-12-14T05:48:11;5.70;99.90
7445;DHT22;3764;48.126;11.594;2023-12-14T05:50:40;5.70;99.90
7445;DHT22;3764;48.126;11.594;2023-12-14T05:53:07;5.70;99.90
7445;DHT22;3764;48.126;11.594;2023-12-14T05:55:34;5.70;99.90
7445;DHT22;3764;48.126;11.594;2023-12-14T05:58:01;5.70;99.90
7445;DHT22;3764;48.126;11.594;2023-12-14T06:00:29;5.70;99.90
7445;DHT22;3764;48.126;11.594;2023-12-14T06:02:57;5.70;99.90
7445;DHT22;3764;48.126;11.594;2023-12-14T06:05:24;5.70;99.90
7445;DHT22;3764;48.126;11.594;2023-12-14T06:07:53;5.70;99.90
7445;DHT22;3764;48.126;11.594;2023-12-14T06:10:20;5.70;99.90
7445;DHT22;3764;48.126;11.594;2023-12-14T06:12:48;5.70;99.90
7445;DHT22;3764;48.126;11.594;2023-12-14T06:15:15;5.70;99.90
7445;DHT22;3764;48.126;11.594;2023-12-14T06:17:42;5.70;99.90
7445;DHT22;3764;48.126;11.594;2023-12-14T06:20:10;5.70;99.90
7445;DHT22;3764;48.126;11.594;2023-12-14T06:22:38;5.70;99.90
7445;DHT22;3764;48.126;11.594;2023-12-14T06:25:07;5.70;99.90
7445;DHT22;3764;48.126;11.594;2023-12-14T06:27:34;5.70;99.90
7445;DHT22;3764;48.126;11.594;2023-12-14T06:30:01;5.70;99.90
7445;DHT22;3764;48.126;11.594;2023-12-14T06:32:28;5.70;99.90
7445;DHT22;3764;48.126;11.594;2023-12-14T06:34:56;5.70;99.90
7445;DHT22;3764;48.126;11.594;2023-12-14T06:37:23;5.70;99.90
7445;DHT22;3764;48.126;11.594;2023-12-14T06:39:50;5.70;99.90
7445;DHT22;3764;48.126;11.594;2023-12-14T06:42:19;5.70;99.90
7445;DHT22;3764;48.126;11.594;2023-12-14T06:44:46;5.70;99.90
7445;DHT22;3764;48.126;11.594;2023-12-14T06:47:14;5.70;99.90
7445;DHT22;3764;48.126;11.594;2023-12-14T06:49:41;5.70;99.90
7445;DHT22;3764;48.126;11.594;2023-12-14T06:52:08;5.70;99.90
7445;DHT22;3764;48.126;11.594;2023-12-14T06:54:36;5.70;99.90
7445;DHT22;3764;48.126;11.594;2023-12-14T06:57:03;5.70;99.90
7445;DHT22;3764;48.126;11.594;2023-12-14T06:59:32;5.70;99.90
7445;DHT22;3764;48.126;11.594;2023-12-14T07:01:59;5.70;99.90
7445;DHT22;3764;48.126;11.594;2023-12-14T07:04:26;5.70;99.90
7445;DHT22;3764;48.126;11.594;2023-12-14T07:06:53;5.80;99.90
7445;DHT22;3764;48.126;11.594;2023-12-14T07:09:20;5.80;99.90
7445;DHT22;3764;48.126;11.594;2023-12-14T07:11:48;5.80;99.90
7445;DHT22;3764;48.126;11.594;2023-12-14T07:14:15;5.80;99.90
7445;DHT22;3764;48.126;11.594;2023-12-14T07:16:43;5.70;99.90
7445;DHT22;3764;48.126;11.594;2023-12-14T07:19:10;5.80;99.90
7445;DHT22;3764;48.126;11.594;2023-12-14T07:21:38;5.80;99.90
7445;DHT22;3764;48.126;11.594;2023-12-14T07:24:05;5.80;99.90
7445;DHT22;3764;48.126;11.594;2023-12-14T07:26:33;5.80;99.90
7445;DHT22;3764;48.126;11.594;2023-12-14T07:29:00;5.80;99.90
7445;DHT22;3764;48.126;11.594;2023-12-14T07:31:27;5.80;99.90
7445;DHT22;3764;48.126;11.594;2023-12-14T07:33:57;5.80;99.90
7445;DHT22;3764;48.126;11.594;2023-12-14T07:36:24;5.80;99.90
7445;DHT22;3764;48.126;11.594;2023-12-14T07:38:51;5.80;99.90
7445;DHT22;3764;48.126;11.594;2023-12-14T07:41:19;5.80;99.90
7445;DHT22;3764;48.126;11.594;2023-12-14T07:43:48;5.70;99.90
7445;DHT22;3764;48.126;11.594;2023-12-14T07:46:16;5.80;99.90
7445;DHT22;3764;48.126;11.594;2023-12-14T07:48:43;5.80;99.90
7445;DHT22;3764;48.126;11.594;2023-12-14T07:51:11;5.80;99.90
7445;DHT22;3764;48.126;11.594;2023-12-14T07:53:38;6.00;99.90
7445;DHT22;3764;48.126;11.594;2023-12-14T07:56:07;6.10;99.90
7445;DHT22;3764;48.126;11.594;2023-12-14T07:58:34;6.20;99.90
7445;DHT22;3764;48.126;11.594;2023-12-14T08:01:02;6.40;99.90
7445;DHT22;3764;48.126;11.594;2023-12-14T08:03:29;6.50;99.90
7445;DHT22;3764;48.126;11.594;2023-12-14T08:05:56;6.80;99.90
7445;DHT22;3764;48.126;11.594;2023-12-14T08:08:24;7.00;99.90
7445;DHT22;3764;48.126;11.594;2023-12-14T08:10:52;7.10;99.90
7445;DHT22;3764;48.126;11.594;2023-12-14T08:13:19;7.10;99.90
7445;DHT22;3764;48.126;11.594;2023-12-14T08:15:46;7.10;99.90
7445;DHT22;3764;48.126;11.594;2023-12-14T08:18:13;7.10;99.90
7445;DHT22;3764;48.126;11.594;2023-12-14T08:20:40;7.00;99.90
7445;DHT22;3764;48.126;11.594;2023-12-14T08:23:07;6.90;99.90
7445;DHT22;3764;48.126;11.594;2023-12-14T08:25:36;6.70;99.90
7445;DHT22;3764;48.126;11.594;2023-12-14T08:28:03;6.60;99.90
7445;DHT22;3764;48.126;11.594;2023-12-14T08:30:30;6.60;99.90
7445;DHT22;3764;48.126;11.594;2023-12-14T08:32:58;6.50;99.90
7445;DHT22;3764;48.126;11.594;2023-12-14T08:35:25;6.40;99.90
7445;DHT22;3764;48.126;11.594;2023-12-14T08:37:52;6.40;99.90
7445;DHT22;3764;48.126;11.594;2023-12-14T08:40:18;6.40;99.90
7445;DHT22;3764;48.126;11.594;2023-12-14T08:42:48;6.30;99.90
7445;DHT22;3764;48.126;11.594;2023-12-14T08:45:15;6.30;99.90
7445;DHT22;3764;48.126;11.594;2023-12-14T08:47:43;6.30;99.90
7445;DHT22;3764;48.126;11.594;2023-12-14T08:50:10;6.50;99.90
7445;DHT22;3764;48.126;11.594;2023-12-14T08:52:38;6.50;99.90
7445;DHT22;3764;48.126;11.594;2023-12-14T08:55:06;6.50;99.90
7445;DHT22;3764;48.126;11.594;2023-12-14T08:57:34;6.40;99.90
7445;DHT22;3764;48.126;11.594;2023-12-14T09:00:04;6.40;99.90
7445;DHT22;3764;48.126;11.594;2023-12-14T09:02:32;6.40;99.90
7445;DHT22;3764;48.126;11.594;2023-12-14T09:04:59;6.40;99.90
7445;DHT22;3764;48.126;11.594;2023-12-14T09:07:26;6.40;99.90
7445;DHT22;3764;48.126;11.594;2023-12-14T09:09:53;6.40;99.90
7445;DHT22;3764;48.126;11.594;2023-12-14T09:12:21;6.30;99.90
7445;DHT22;3764;48.126;11.594;2023-12-14T09:14:48;6.30;99.90
7445;DHT22;3764;48.126;11.594;2023-12-14T09:17:17;6.30;99.90
7445;DHT22;3764;48.126;11.594;2023-12-14T09:19:44;6.40;99.90
7445;DHT22;3764;48.126;11.594;2023-12-14T09:22:11;6.30;99.90
7445;DHT22;3764;48.126;11.594;2023-12-14T09:24:38;6.30;99.90
7445;DHT22;3764;48.126;11.594;2023-12-14T09:27:05;6.40;99.90
7445;DHT22;3764;48.126;11.594;2023-12-14T09:29:32;6.40;99.90
7445;DHT22;3764;48.126;11.594;2023-12-14T09:31:59;6.40;99.90
7445;DHT22;3764;48.126;11.594;2023-12-14T09:34:28;6.40;99.90
7445;DHT22;3764;48.126;11.594;2023-12-14T09:36:55;6.40;99.90
7445;DHT22;3764;48.126;11.594;2023-12-14T09:39:22;6.40;99.90
7445;DHT22;3764;48.126;11.594;2023-12-14T09:41:50;6.40;99.90
7445;DHT22;3764;48.126;11.594;2023-12-14T09:44:17;6.40;99.90
7445;DHT22;3764;48.126;11.594;2023-12-14T09:46:45;6.40;99.90
7445;DHT22;3764;48.126;11.594;2023-12-14T09:49:16;6.40;99.90
7445;DHT22;3764;48.126;11.594;2023-12-14T09:51:45;6.40;99.90
7445;DHT22;3764;48.126;11.594;2023-12-14T09:54:12;6.40;99.90
7445;DHT22;3764;48.126;11.594;2023-12-14T09:56:46;6.40;99.90
7445;DHT22;3764;48.126;11.594;2023-12-14T09:59:13;6.40;99.90
7445;DHT22;3764;48.126;11.594;2023-12-14T10:01:40;6.30;99.90
7445;DHT22;3764;48.126;11.594;2023-12-14T10:04:09;6.30;99.90
7445;DHT22;3764;48.126;11.594;2023-12-14T10:06:38;6.30;99.90
7445;DHT22;3764;48.126;11.594;2023-12-14T10:09:07;6.30;99.90
7445;DHT22;3764;48.126;11.594;2023-12-14T10:11:35;6.30;99.90
7445;DHT22;3764;48.126;11.594;2023-12-14T10:14:03;6.30;99.90
7445;DHT22;3764;48.126;11.594;2023-12-14T10:16:44;6.40;99.90
7445;DHT22;3764;48.126;11.594;2023-12-14T10:19:11;6.30;99.90
7445;DHT22;3764;48.126;11.594;2023-12-14T10:21:38;6.30;99.90
7445;DHT22;3764;48.126;11.594;2023-12-14T10:24:08;6.30;99.90
7445;DHT22;3764;48.126;11.594;2023-12-14T10:26:35;6.30;99.90
7445;DHT22;3764;48.126;11.594;2023-12-14T10:29:02;6.30;99.90
7445;DHT22;3764;48.126;11.594;2023-12-14T10:31:30;6.20;99.90
7445;DHT22;3764;48.126;11.594;2023-12-14T10:34:03;6.20;99.90
7445;DHT22;3764;48.126;11.594;2023-12-14T10:36:33;6.20;99.90
7445;DHT22;3764;48.126;11.594;2023-12-14T10:39:01;6.20;99.90
7445;DHT22;3764;48.126;11.594;2023-12-14T10:41:33;6.20;99.90
7445;DHT22;3764;48.126;11.594;2023-12-14T10:44:01;6.20;99.90
7445;DHT22;3764;48.126;11.594;2023-12-14T10:46:28;6.20;99.90
7445;DHT22;3764;48.126;11.594;2023-12-14T10:48:56;6.30;99.90
7445;DHT22;3764;48.126;11.594;2023-12-14T10:51:24;6.20;99.90
7445;DHT22;3764;48.126;11.594;2023-12-14T10:53:53;6.20;99.90
7445;DHT22;3764;48.126;11.594;2023-12-14T10:56:20;6.20;99.90
7445;DHT22;3764;48.126;11.594;2023-12-14T10:58:51;6.30;99.90
7445;DHT22;3764;48.126;11.594;2023-12-14T11:01:20;6.30;99.90
7445;DHT22;3764;48.126;11.594;2023-12-14T11:03:49;6.30;99.90
7445;DHT22;3764;48.126;11.594;2023-12-14T11:06:37;6.30;99.90
7445;DHT22;3764;48.126;11.594;2023-12-14T11:09:05;6.30;99.90
7445;DHT22;3764;48.126;11.594;2023-12-14T11:11:40;6.30;99.90
7445;DHT22;3764;48.126;11.594;2023-12-14T11:14:12;6.30;99.90
7445;DHT22;3764;48.126;11.594;2023-12-14T11:16:39;6.30;99.90
7445;DHT22;3764;48.126;11.594;2023-12-14T11:19:26;6.40;99.90
7445;DHT22;3764;48.126;11.594;2023-12-14T11:22:22;6.40;99.90
7445;DHT22;3764;48.126;11.594;2023-12-14T11:24:54;6.40;99.90
7445;DHT22;3764;48.126;11.594;2023-12-14T11:27:29;6.40;99.90
7445;DHT22;3764;48.126;11.594;2023-12-14T11:29:58;6.40;99.90
7445;DHT22;3764;48.126;11.594;2023-12-14T11:32:26;6.40;99.90
7445;DHT22;3764;48.126;11.594;2023-12-14T11:34:55;6.40;99.90
7445;DHT22;3764;48.126;11.594;2023-12-14T11:37:22;6.50;99.90
7445;DHT22;3764;48.126;11.594;2023-12-14T11:39:50;6.50;99.90
7445;DHT22;3764;48.126;11.594;2023-12-14T11:42:19;6.60;99.90
7445;DHT22;3764;48.126;11.594;2023-12-14T11:44:46;6.60;99.90
7445;DHT22;3764;48.126;11.594;2023-12-14T11:47:15;6.60;99.90
7445;DHT22;3764;48.126;11.594;2023-12-14T11:49:42;6.60;99.90
7445;DHT22;3764;48.126;11.594;2023-12-14T11:52:10;6.60;99.90
7445;DHT22;3764;48.126;11.594;2023-12-14T11:54:37;6.60;99.90
7445;DHT22;3764;48.126;11.594;2023-12-14T11:57:04;6.60;99.90
7445;DHT22;3764;48.126;11.594;2023-12-14T11:59:35;6.70;99.90
7445;DHT22;3764;48.126;11.594;2023-12-14T12:02:03;6.70;99.90
7445;DHT22;3764;48.126;11.594;2023-12-14T12:04:32;6.70;99.90
7445;DHT22;3764;48.126;11.594;2023-12-14T12:07:01;6.70;99.90
7445;DHT22;3764;48.126;11.594;2023-12-14T12:09:39;6.80;99.90
7445;DHT22;3764;48.126;11.594;2023-12-14T12:12:08;6.80;99.90
7445;DHT22;3764;48.126;11.594;2023-12-14T12:14:37;6.80;99.90
7445;DHT22;3764;48.126;11.594;2023-12-14T12:17:05;6.80;99.90
7445;DHT22;3764;48.126;11.594;2023-12-14T12:19:35;6.80;99.90
7445;DHT22;3764;48.126;11.594;2023-12-14T12:22:03;6.80;99.90
7445;DHT22;3764;48.126;11.594;2023-12-14T12:24:31;6.80;99.90
7445;DHT22;3764;48.126;11.594;2023-12-14T12:26:58;6.90;99.90
7445;DHT22;3764;48.126;11.594;2023-12-14T12:29:26;6.80;99.90
7445;DHT22;3764;48.126;11.594;2023-12-14T12:31:53;6.90;99.90
7445;DHT22;3764;48.126;11.594;2023-12-14T12:34:21;6.80;99.90
7445;DHT22;3764;48.126;11.594;2023-12-14T12:36:49;6.90;99.90
7445;DHT22;3764;48.126;11.594;2023-12-14T12:39:16;6.90;99.90
7445;DHT22;3764;48.126;11.594;2023-12-14T12:41:43;6.90;99.90
7445;DHT22;3764;48.126;11.594;2023-12-14T12:44:11;6.80;99.90
7445;DHT22;3764;48.126;11.594;2023-12-14T12:46:38;6.80;99.90
7445;DHT22;3764;48.126;11.594;2023-12-14T12:49:06;6.80;99.90
7445;DHT22;3764;48.126;11.594;2023-12-14T12:51:33;6.80;99.90
7445;DHT22;3764;48.126;11.594;2023-12-14T12:54:02;6.90;99.90
7445;DHT22;3764;48.126;11.594;2023-12-14T12:56:29;6.90;99.90
7445;DHT22;3764;48.126;11.594;2023-12-14T12:58:56;6.90;99.90
7445;DHT22;3764;48.126;11.594;2023-12-14T13:01:24;6.90;99.90
7445;DHT22;3764;48.126;11.594;2023-12-14T13:03:53;6.90;99.90
7445;DHT22;3764;48.126;11.594;2023-12-14T13:06:23;7.00;99.90
7445;DHT22;3764;48.126;11.594;2023-12-14T13:08:51;7.00;99.90
7445;DHT22;3764;48.126;11.594;2023-12-14T13:11:19;7.00;99.90
7445;DHT22;3764;48.126;11.594;2023-12-14T13:13:47;7.00;99.90
7445;DHT22;3764;48.126;11.594;2023-12-14T13:16:14;7.00;99.90
7445;DHT22;3764;48.126;11.594;2023-12-14T13:18:43;7.00;99.90
7445;DHT22;3764;48.126;11.594;2023-12-14T13:21:11;7.00;99.90
7445;DHT22;3764;48.126;11.594;2023-12-14T13:23:38;7.00;99.90
7445;DHT22;3764;48.126;11.594;2023-12-14T13:26:06;7.00;99.90
7445;DHT22;3764;48.126;11.594;2023-12-14T13:28:34;7.00;99.90
7445;DHT22;3764;48.126;11.594;2023-12-14T13:31:02;7.00;99.90
7445;DHT22;3764;48.126;11.594;2023-12-14T13:33:29;7.00;99.90
7445;DHT22;3764;48.126;11.594;2023-12-14T13:35:56;7.00;99.90
7445;DHT22;3764;48.126;11.594;2023-12-14T13:38:24;7.00;99.90
7445;DHT22;3764;48.126;11.594;2023-12-14T13:40:51;7.00;99.90
7445;DHT22;3764;48.126;11.594;2023-12-14T13:43:18;7.10;99.90
7445;DHT22;3764;48.126;11.594;2023-12-14T13:45:47;7.00;99.90
7445;DHT22;3764;48.126;11.594;2023-12-14T13:48:16;7.10;99.90
7445;DHT22;3764;48.126;11.594;2023-12-14T13:50:43;7.10;99.90
7445;DHT22;3764;48.126;11.594;2023-12-14T13:53:10;7.10;99.90
7445;DHT22;3764;48.126;11.594;2023-12-14T13:55:37;7.10;99.90
7445;DHT22;3764;48.126;11.594;2023-12-14T13:58:05;7.10;99.90
7445;DHT22;3764;48.126;11.594;2023-12-14T14:00:32;7.10;99.90
7445;DHT22;3764;48.126;11.594;2023-12-14T14:03:02;7.10;99.90
7445;DHT22;3764;48.126;11.594;2023-12-14T14:05:30;7.10;99.90
7445;DHT22;3764;48.126;11.594;2023-12-14T14:07:57;7.10;99.90
7445;DHT22;3764;48.126;11.594;2023-12-14T14:10:25;7.10;99.90
7445;DHT22;3764;48.126;11.594;2023-12-14T14:12:52;7.10;99.90
7445;DHT22;3764;48.126;11.594;2023-12-14T14:15:19;7.10;99.90
7445;DHT22;3764;48.126;11.594;2023-12-14T14:17:47;7.10;99.90
7445;DHT22;3764;48.126;11.594;2023-12-14T14:20:18;7.10;99.90
7445;DHT22;3764;48.126;11.594;2023-12-14T14:22:46;7.10;99.90
7445;DHT22;3764;48.126;11.594;2023-12-14T14:25:13;7.10;99.90
7445;DHT22;3764;48.126;11.594;2023-12-14T14:27:40;7.10;99.90
7445;DHT22;3764;48.126;11.594;2023-12-14T14:30:08;7.10;99.90
7445;DHT22;3764;48.126;11.594;2023-12-14T14:32:35;7.10;99.90
7445;DHT22;3764;48.126;11.594;2023-12-14T14:35:04;7.10;99.90
7445;DHT22;3764;48.126;11.594;2023-12-14T14:37:34;7.10;99.90
7445;DHT22;3764;48.126;11.594;2023-12-14T14:40:01;7.10;99.90
7445;DHT22;3764;48.126;11.594;2023-12-14T14:42:29;7.00;99.90
7445;DHT22;3764;48.126;11.594;2023-12-14T14:44:57;7.00;99.90
7445;DHT22;3764;48.126;11.594;2023-12-14T14:47:25;7.00;99.90
7445;DHT22;3764;48.126;11.594;2023-12-14T14:49:53;7.00;99.90
7445;DHT22;3764;48.126;11.594;2023-12-14T14:52:28;7.00;99.90
7445;DHT22;3764;48.126;11.594;2023-12-14T14:54:57;6.90;99.90
7445;DHT22;3764;48.126;11.594;2023-12-14T14:57:24;6.90;99.90
7445;DHT22;3764;48.126;11.594;2023-12-14T14:59:51;6.90;99.90
7445;DHT22;3764;48.126;11.594;2023-12-14T15:02:19;6.90;99.90
7445;DHT22;3764;48.126;11.594;2023-12-14T15:04:46;7.00;99.90
7445;DHT22;3764;48.126;11.594;2023-12-14T15:07:13;7.00;99.90
7445;DHT22;3764;48.126;11.594;2023-12-14T15:09:40;7.00;99.90
7445;DHT22;3764;48.126;11.594;2023-12-14T15:12:09;7.00;99.90
7445;DHT22;3764;48.126;11.594;2023-12-14T15:14:36;6.90;99.90
7445;DHT22;3764;48.126;11.594;2023-12-14T15:17:03;6.90;99.90
7445;DHT22;3764;48.126;11.594;2023-12-14T15:19:31;6.90;99.90
7445;DHT22;3764;48.126;11.594;2023-12-14T15:21:58;6.90;99.90
7445;DHT22;3764;48.126;11.594;2023-12-14T15:24:25;6.90;99.90
7445;DHT22;3764;48.126;11.594;2023-12-14T15:26:53;6.90;99.90
7445;DHT22;3764;48.126;11.594;2023-12-14T15:29:22;6.90;99.90
7445;DHT22;3764;48.126;11.594;2023-12-14T15:31:49;6.80;99.90
7445;DHT22;3764;48.126;11.594;2023-12-14T15:34:18;6.80;99.90
7445;DHT22;3764;48.126;11.594;2023-12-14T15:36:45;6.80;99.90
7445;DHT22;3764;48.126;11.594;2023-12-14T15:39:12;6.80;99.90
7445;DHT22;3764;48.126;11.594;2023-12-14T15:41:39;6.80;99.90
7445;DHT22;3764;48.126;11.594;2023-12-14T15:44:07;6.80;99.90
7445;DHT22;3764;48.126;11.594;2023-12-14T15:46:35;6.80;99.90
7445;DHT22;3764;48.126;11.594;2023-12-14T15:49:02;6.80;99.90
7445;DHT22;3764;48.126;11.594;2023-12-14T15:51:29;6.80;99.90
7445;DHT22;3764;48.126;11.594;2023-12-14T15:53:56;6.80;99.90
7445;DHT22;3764;48.126;11.594;2023-12-14T15:56:25;6.80;99.90
7445;DHT22;3764;48.126;11.594;2023-12-14T15:58:54;6.80;99.90
7445;DHT22;3764;48.126;11.594;2023-12-14T16:01:22;6.70;99.90
7445;DHT22;3764;48.126;11.594;2023-12-14T16:03:51;6.70;99.90
7445;DHT22;3764;48.126;11.594;2023-12-14T16:06:18;6.70;99.90